Time;durP1;ratioP1;P1;durP2;ratioP2;P2;SDS_P1;SDS_P2;PMS_P1;PMS_P2;Temp;Humidity;BMP_temperature;BMP_pressure;BME280_temperature;BME280_humidity;BME280_pressure;Samples;Min_cycle;Max_cycle;Signal;HPM_P1;HPM_P2
2021/03/07 09:04:37;;;;;;;4.90;3.10;;;;;;;;;;5082274;28;20988;-58
2021/03/07 09:07:03;;;;;;;7.20;4.10;;;;;;;;;;5072287;28;20044;-59
2021/03/07 09:09:28;;;;;;;5.72;4.30;;;;;;;;;;5073049;28;20037;-59
2021/03/07 09:11:57;;;;;;;6.00;3.80;;;;;;;;;;5072447;28;20102;-58
2021/03/07 09:14:28;;;;;;;5.18;3.67;;;;;;;;;;5072016;28;20041;-60
2021/03/07 09:16:54;;;;;;;5.05;3.20;;;;;;;;;;5072667;28;20037;-61
2021/03/07 09:19:35;;;;;;;5.50;3.78;;;;;;;;;;5069786;28;20041;-62
2021/03/07 09:22:15;;;;;;;6.68;3.63;;;;;;;;;;5069858;28;20028;-58
2021/03/07 09:24:59;;;;;;;4.40;3.10;;;;;;;;;;5072069;28;20034;-58
2021/03/07 09:27:26;;;;;;;5.43;3.78;;;;;;;;;;5073644;28;20128;-58
2021/03/07 09:29:57;;;;;;;5.15;3.60;;;;;;;;;;5072328;28;20033;-58
2021/03/07 09:32:31;;;;;;;5.57;4.13;;;;;;;;;;5071752;28;20040;-59
2021/03/07 09:34:58;;;;;;;5.18;3.75;;;;;;;;;;5060148;28;20080;-58
2021/03/07 09:37:24;;;;;;;5.85;4.05;;;;;;;;;;5040108;28;20029;-57
2021/03/07 09:39:50;;;;;;;6.00;4.00;;;;;;;;;;5071242;28;20033;-59
2021/03/07 09:42:19;;;;;;;5.47;4.10;;;;;;;;;;5020291;28;20036;-60
2021/03/07 09:44:44;;;;;;;6.10;3.92;;;;;;;;;;5072199;28;20493;-47
2021/03/07 09:50:23;;;;;;;6.32;4.00;;;;;;;;;;5104741;27;20503;-58
2021/03/07 09:52:51;;;;;;;6.43;4.38;;;;;;;;;;5092463;28;20045;-60
2021/03/07 09:55:27;;;;;;;6.93;4.30;;;;;;;;;;5054916;28;20190;-59
2021/03/07 09:58:06;;;;;;;6.53;4.03;;;;;;;;;;5090486;28;20036;-59
2021/03/07 10:00:40;;;;;;;5.97;4.25;;;;;;;;;;5089189;28;20086;-61
2021/03/07 10:03:25;;;;;;;7.43;4.70;;;;;;;;;;5090213;28;20041;-60
2021/03/07 10:06:03;;;;;;;5.20;3.90;;;;;;;;;;5093045;28;20056;-59
2021/03/07 10:08:31;;;;;;;5.32;3.78;;;;;;;;;;5092622;28;20045;-59
2021/03/07 10:11:12;;;;;;;6.63;3.88;;;;;;;;;;5092642;28;20455;-58
2021/03/07 10:13:41;;;;;;;5.13;3.53;;;;;;;;;;5091185;28;20552;-58
2021/03/07 10:16:08;;;;;;;5.35;3.92;;;;;;;;;;5090792;28;20041;-59
2021/03/07 10:18:34;;;;;;;5.22;3.90;;;;;;;;;;5088291;28;20197;-59
2021/03/07 10:21:00;;;;;;;5.13;3.60;;;;;;;;;;5093488;28;20857;-59
2021/03/07 10:23:30;;;;;;;5.07;3.45;;;;;;;;;;5093629;28;20059;-60
2021/03/07 10:25:57;;;;;;;5.22;3.33;;;;;;;;;;5091903;28;20049;-60
2021/03/07 10:28:27;;;;;;;4.55;3.22;;;;;;;;;;5097910;28;20051;-59
2021/03/07 10:30:53;;;;;;;5.15;3.65;;;;;;;;;;5089291;28;20052;-63
2021/03/07 10:33:27;;;;;;;4.50;3.50;;;;;;;;;;5092156;28;20048;-59
2021/03/07 10:36:12;;;;;;;5.93;3.70;;;;;;;;;;5088912;28;20048;-60
2021/03/07 10:38:48;;;;;;;5.78;3.95;;;;;;;;;;5092087;28;20985;-60
2021/03/07 10:41:30;;;;;;;4.93;3.47;;;;;;;;;;5097878;28;20108;-59
2021/03/07 10:43:57;;;;;;;7.25;3.55;;;;;;;;;;5091462;28;20047;-60
2021/03/07 10:46:32;;;;;;;4.68;3.60;;;;;;;;;;5074955;28;20213;-59
2021/03/07 10:49:01;;;;;;;5.95;3.45;;;;;;;;;;5090260;28;20143;-58
2021/03/07 10:51:27;;;;;;;5.70;3.40;;;;;;;;;;5098315;28;20564;-59
2021/03/07 10:53:53;;;;;;;5.03;3.33;;;;;;;;;;5088377;28;20048;-60
2021/03/07 10:56:18;;;;;;;4.28;2.80;;;;;;;;;;5089628;28;20446;-59
2021/03/07 10:58:44;;;;;;;4.60;3.08;;;;;;;;;;5088693;28;20074;-59
2021/03/07 11:01:16;;;;;;;4.07;2.97;;;;;;;;;;5078586;27;20052;-60
2021/03/07 11:03:42;;;;;;;5.82;3.20;;;;;;;;;;5076994;28;20044;-59
2021/03/07 11:06:08;;;;;;;5.32;3.10;;;;;;;;;;5073011;28;20048;-60
2021/03/07 11:08:33;;;;;;;4.00;2.33;;;;;;;;;;5075804;28;20128;-59
2021/03/07 11:10:58;;;;;;;2.38;1.60;;;;;;;;;;5074803;28;20532;-59
2021/03/07 11:13:24;;;;;;;4.60;2.55;;;;;;;;;;5077288;28;20041;-59
2021/03/07 11:15:49;;;;;;;3.95;2.50;;;;;;;;;;5073766;28;20049;-58
2021/03/07 11:18:15;;;;;;;4.10;1.88;;;;;;;;;;5077525;28;20049;-59
2021/03/07 11:20:40;;;;;;;3.03;1.95;;;;;;;;;;5075849;28;20099;-59
2021/03/07 11:23:06;;;;;;;3.30;2.03;;;;;;;;;;5075916;28;20052;-59
2021/03/07 11:25:31;;;;;;;3.15;2.05;;;;;;;;;;5076122;28;20122;-59
2021/03/07 11:27:57;;;;;;;4.05;2.05;;;;;;;;;;5058504;28;20044;-59
2021/03/07 11:30:23;;;;;;;2.25;1.73;;;;;;;;;;5075480;28;20044;-60
2021/03/07 11:32:48;;;;;;;3.15;1.85;;;;;;;;;;5077497;28;20055;-59
2021/03/07 11:35:14;;;;;;;3.53;2.05;;;;;;;;;;5073269;28;20036;-58
2021/03/07 11:37:41;;;;;;;2.42;1.80;;;;;;;;;;5076494;28;20067;-59
2021/03/07 11:40:07;;;;;;;3.45;1.92;;;;;;;;;;5074232;28;20044;-59
2021/03/07 11:42:38;;;;;;;3.30;2.15;;;;;;;;;;5076596;28;20051;-58
2021/03/07 11:45:04;;;;;;;2.90;1.85;;;;;;;;;;5076591;28;20047;-59
2021/03/07 11:47:30;;;;;;;2.80;1.73;;;;;;;;;;5078171;28;20140;-58
2021/03/07 11:49:55;;;;;;;3.03;1.70;;;;;;;;;;5076547;28;20047;-58
2021/03/07 11:52:21;;;;;;;1.92;1.58;;;;;;;;;;5076508;28;20044;-59
2021/03/07 11:54:46;;;;;;;2.45;1.40;;;;;;;;;;5065465;28;20059;-59
2021/03/07 11:57:12;;;;;;;2.50;1.63;;;;;;;;;;5075397;28;20068;-58
2021/03/07 11:59:37;;;;;;;2.70;1.58;;;;;;;;;;5077557;28;20040;-59
2021/03/07 12:02:07;;;;;;;2.92;1.70;;;;;;;;;;5076060;28;20059;-59
2021/03/07 12:04:36;;;;;;;1.98;1.40;;;;;;;;;;5076004;28;20044;-59
2021/03/07 12:07:04;;;;;;;1.42;1.15;;;;;;;;;;5076872;28;20509;-58
2021/03/07 12:09:29;;;;;;;2.08;1.10;;;;;;;;;;5069819;28;20048;-58
2021/03/07 12:12:01;;;;;;;1.50;1.00;;;;;;;;;;5074870;28;20044;-58
2021/03/07 12:14:31;;;;;;;1.70;1.20;;;;;;;;;;5073982;28;20049;-59
2021/03/07 12:16:59;;;;;;;1.27;0.80;;;;;;;;;;5076959;28;20043;-59
2021/03/07 12:19:24;;;;;;;0.88;0.73;;;;;;;;;;5075766;28;20596;-59
2021/03/07 12:21:50;;;;;;;1.33;0.90;;;;;;;;;;5072959;28;20045;-59
2021/03/07 12:24:18;;;;;;;0.88;0.82;;;;;;;;;;5074387;28;20056;-58
2021/03/07 12:26:46;;;;;;;1.27;0.90;;;;;;;;;;5076606;28;20052;-60
2021/03/07 12:29:11;;;;;;;1.42;1.13;;;;;;;;;;5076035;28;20037;-59
2021/03/07 12:31:37;;;;;;;1.52;1.10;;;;;;;;;;5076220;28;20044;-59
2021/03/07 12:34:05;;;;;;;1.60;1.30;;;;;;;;;;5075406;28;20414;-58
2021/03/07 12:36:30;;;;;;;2.20;1.10;;;;;;;;;;5077163;28;20052;-58
2021/03/07 12:38:56;;;;;;;2.03;0.80;;;;;;;;;;5075586;28;20434;-59
2021/03/07 12:41:24;;;;;;;1.15;0.80;;;;;;;;;;5076605;28;20057;-60
2021/03/07 12:43:52;;;;;;;1.88;1.02;;;;;;;;;;5073982;28;20118;-58
2021/03/07 12:46:21;;;;;;;0.87;0.80;;;;;;;;;;5073584;28;20048;-59
2021/03/07 12:48:46;;;;;;;2.03;1.00;;;;;;;;;;5074017;28;20137;-59
2021/03/07 12:51:12;;;;;;;1.20;1.00;;;;;;;;;;5071135;28;20411;-58
2021/03/07 12:53:38;;;;;;;2.10;0.95;;;;;;;;;;5075950;28;20759;-58
2021/03/07 12:56:03;;;;;;;1.25;1.00;;;;;;;;;;5075335;28;20048;-58
2021/03/07 12:58:29;;;;;;;1.38;1.10;;;;;;;;;;5077327;28;20461;-59
2021/03/07 13:00:55;;;;;;;1.60;1.10;;;;;;;;;;5073221;28;20740;-58
2021/03/07 13:03:20;;;;;;;1.75;1.10;;;;;;;;;;5072752;28;20478;-58
2021/03/07 13:05:46;;;;;;;1.85;1.00;;;;;;;;;;5059150;28;20049;-59
2021/03/07 13:08:11;;;;;;;1.63;1.10;;;;;;;;;;5077098;28;20048;-58
2021/03/07 13:10:37;;;;;;;1.30;1.10;;;;;;;;;;5077113;28;20037;-59
2021/03/07 13:13:02;;;;;;;1.33;0.90;;;;;;;;;;5076874;28;20502;-59
2021/03/07 13:15:28;;;;;;;2.17;0.93;;;;;;;;;;5071640;28;20040;-59
2021/03/07 13:17:54;;;;;;;1.88;1.00;;;;;;;;;;5076200;28;20098;-59
2021/03/07 13:20:19;;;;;;;2.13;1.00;;;;;;;;;;5074721;28;20081;-58
2021/03/07 13:22:45;;;;;;;2.05;0.70;;;;;;;;;;5074362;28;20052;-59
2021/03/07 13:25:11;;;;;;;1.27;0.85;;;;;;;;;;5074443;28;20367;-58
2021/03/07 13:27:36;;;;;;;0.77;0.77;;;;;;;;;;5056516;28;20402;-59
2021/03/07 13:30:04;;;;;;;1.42;0.80;;;;;;;;;;5073573;28;20041;-60
2021/03/07 13:32:29;;;;;;;0.90;0.80;;;;;;;;;;5061882;28;20044;-59
2021/03/07 13:34:54;;;;;;;1.58;0.90;;;;;;;;;;5072425;28;20767;-60
2021/03/07 13:37:20;;;;;;;1.10;0.70;;;;;;;;;;5073192;28;20053;-59
2021/03/07 13:39:45;;;;;;;1.58;0.65;;;;;;;;;;5072338;28;20487;-58
2021/03/07 13:42:11;;;;;;;1.50;0.70;;;;;;;;;;5072416;28;20051;-59
2021/03/07 13:44:36;;;;;;;1.42;0.90;;;;;;;;;;5074946;28;20482;-59
2021/03/07 13:47:02;;;;;;;0.77;0.70;;;;;;;;;;5073897;28;20053;-59
2021/03/07 13:49:28;;;;;;;0.73;0.70;;;;;;;;;;5072957;28;20384;-58
2021/03/07 13:51:53;;;;;;;1.00;0.90;;;;;;;;;;5063492;28;20077;-60
2021/03/07 13:54:20;;;;;;;0.80;0.70;;;;;;;;;;5074256;28;20048;-59
2021/03/07 13:56:46;;;;;;;1.25;0.70;;;;;;;;;;5074690;28;20098;-59
2021/03/07 13:59:11;;;;;;;0.90;0.70;;;;;;;;;;5070971;28;20037;-59
2021/03/07 14:01:37;;;;;;;1.55;0.80;;;;;;;;;;5072047;28;20045;-58
2021/03/07 14:04:02;;;;;;;0.80;0.65;;;;;;;;;;5073763;28;20036;-59
2021/03/07 14:06:28;;;;;;;1.08;0.73;;;;;;;;;;5073007;28;20521;-59
2021/03/07 14:08:54;;;;;;;1.00;0.73;;;;;;;;;;5074752;28;20053;-59
2021/03/07 14:11:19;;;;;;;1.48;0.82;;;;;;;;;;5074910;28;20060;-61
2021/03/07 14:13:44;;;;;;;1.35;0.70;;;;;;;;;;5056330;28;20049;-59
2021/03/07 14:16:10;;;;;;;1.20;0.80;;;;;;;;;;5073909;28;20106;-59
2021/03/07 14:18:36;;;;;;;1.50;0.80;;;;;;;;;;5072226;28;20456;-59
2021/03/07 14:21:02;;;;;;;1.48;0.80;;;;;;;;;;5074811;28;20067;-59
2021/03/07 14:23:28;;;;;;;1.67;0.70;;;;;;;;;;5074240;28;20040;-58
2021/03/07 14:25:53;;;;;;;0.65;0.63;;;;;;;;;;5074644;28;20085;-59
2021/03/07 14:28:19;;;;;;;1.20;0.80;;;;;;;;;;5074149;28;20053;-59
2021/03/07 14:30:44;;;;;;;1.60;0.73;;;;;;;;;;5075203;28;20049;-59
2021/03/07 14:33:10;;;;;;;0.93;0.82;;;;;;;;;;5074637;28;20482;-58
2021/03/07 14:35:35;;;;;;;0.82;0.60;;;;;;;;;;5074969;28;20051;-59
2021/03/07 14:38:01;;;;;;;0.73;0.73;;;;;;;;;;5078828;28;20063;-59
2021/03/07 14:40:26;;;;;;;0.63;0.63;;;;;;;;;;5077873;28;20107;-59
2021/03/07 14:42:52;;;;;;;1.60;1.00;;;;;;;;;;5076865;28;20045;-58
2021/03/07 14:45:18;;;;;;;0.65;0.60;;;;;;;;;;5077676;28;20128;-59
2021/03/07 14:47:43;;;;;;;0.85;0.60;;;;;;;;;;5059703;28;20041;-59
2021/03/07 14:50:12;;;;;;;2.60;1.05;;;;;;;;;;5076897;28;20037;-59
2021/03/07 14:52:38;;;;;;;2.65;0.70;;;;;;;;;;5075841;28;20049;-59
2021/03/07 14:55:05;;;;;;;0.90;0.70;;;;;;;;;;5076650;28;20838;-59
2021/03/07 14:57:31;;;;;;;0.60;0.60;;;;;;;;;;5076198;28;20048;-60
2021/03/07 14:59:56;;;;;;;0.70;0.70;;;;;;;;;;5076498;28;20040;-59
2021/03/07 15:02:22;;;;;;;0.70;0.60;;;;;;;;;;5076850;28;20044;-60
2021/03/07 15:04:47;;;;;;;1.33;0.80;;;;;;;;;;5076729;28;20456;-60
2021/03/07 15:07:13;;;;;;;2.38;0.98;;;;;;;;;;5076605;28;20057;-60
2021/03/07 15:09:38;;;;;;;0.98;0.73;;;;;;;;;;5074627;28;20077;-59
2021/03/07 15:12:04;;;;;;;1.48;0.90;;;;;;;;;;5074037;28;20052;-59
2021/03/07 15:14:30;;;;;;;1.35;0.80;;;;;;;;;;5077462;28;20843;-61
2021/03/07 15:16:55;;;;;;;1.92;0.80;;;;;;;;;;5077743;28;20067;-68
2021/03/07 15:19:21;;;;;;;1.27;0.90;;;;;;;;;;5075695;28;20098;-69
2021/03/07 15:21:46;;;;;;;1.25;0.75;;;;;;;;;;5076715;28;20045;-69
2021/03/07 15:24:12;;;;;;;2.65;0.88;;;;;;;;;;5076554;28;20124;-66
2021/03/07 15:26:37;;;;;;;0.80;0.70;;;;;;;;;;5076135;28;20047;-68
2021/03/07 15:29:03;;;;;;;1.58;0.90;;;;;;;;;;5077499;28;20052;-67
2021/03/07 15:31:28;;;;;;;1.83;0.93;;;;;;;;;;5076483;28;20522;-68
2021/03/07 15:33:54;;;;;;;0.93;0.73;;;;;;;;;;5077168;28;20131;-68
2021/03/07 15:36:19;;;;;;;1.15;0.85;;;;;;;;;;5077529;28;20580;-68
2021/03/07 15:38:45;;;;;;;1.10;0.70;;;;;;;;;;5076925;28;20046;-68
2021/03/07 15:41:11;;;;;;;1.30;0.85;;;;;;;;;;5058608;28;20064;-69
2021/03/07 15:43:36;;;;;;;0.85;0.80;;;;;;;;;;5077336;28;20047;-68
2021/03/07 15:46:03;;;;;;;1.27;0.90;;;;;;;;;;5074267;28;20040;-68
2021/03/07 15:48:28;;;;;;;2.67;1.10;;;;;;;;;;5085255;28;20053;-68
2021/03/07 15:50:53;;;;;;;2.58;1.00;;;;;;;;;;5079012;28;20507;-67
2021/03/07 15:53:19;;;;;;;1.23;0.88;;;;;;;;;;5077330;28;20040;-66
2021/03/07 15:55:45;;;;;;;1.05;0.85;;;;;;;;;;5077946;28;20718;-65
2021/03/07 15:58:10;;;;;;;1.63;0.95;;;;;;;;;;5075701;28;20143;-68
2021/03/07 16:00:36;;;;;;;2.38;1.00;;;;;;;;;;5077123;28;20048;-68
2021/03/07 16:03:01;;;;;;;1.55;0.90;;;;;;;;;;5075508;28;20087;-66
2021/03/07 16:05:27;;;;;;;1.55;1.05;;;;;;;;;;5077124;28;20068;-67
2021/03/07 16:07:52;;;;;;;1.30;1.13;;;;;;;;;;5076993;28;20402;-67
2021/03/07 16:10:18;;;;;;;1.13;0.98;;;;;;;;;;5075548;28;20044;-67
2021/03/07 16:12:43;;;;;;;1.60;1.05;;;;;;;;;;5077696;28;20051;-66
2021/03/07 16:15:10;;;;;;;1.30;1.00;;;;;;;;;;5075131;28;20044;-71
2021/03/07 16:17:36;;;;;;;1.40;0.93;;;;;;;;;;5050853;28;20549;-75
2021/03/07 16:20:02;;;;;;;1.13;0.90;;;;;;;;;;5075584;28;20037;-73
2021/03/07 16:22:27;;;;;;;1.30;0.90;;;;;;;;;;5075818;28;20513;-73
2021/03/07 16:24:53;;;;;;;1.08;0.95;;;;;;;;;;5076784;28;20041;-72
2021/03/07 16:27:18;;;;;;;1.60;1.00;;;;;;;;;;5075953;28;20090;-72
2021/03/07 16:29:45;;;;;;;1.63;1.00;;;;;;;;;;5073762;28;20045;-69
2021/03/07 16:32:10;;;;;;;2.15;1.00;;;;;;;;;;5054604;28;20036;-72
2021/03/07 16:34:36;;;;;;;1.50;0.98;;;;;;;;;;5072561;28;20390;-68
2021/03/07 16:37:01;;;;;;;2.55;1.00;;;;;;;;;;5075231;28;20044;-70
2021/03/07 16:39:27;;;;;;;1.20;1.10;;;;;;;;;;5083126;28;20482;-68
2021/03/07 16:41:52;;;;;;;2.30;1.27;;;;;;;;;;5040722;28;20071;-67
2021/03/07 16:44:17;;;;;;;1.98;1.00;;;;;;;;;;5074154;28;20045;-68
2021/03/07 16:46:43;;;;;;;1.67;0.95;;;;;;;;;;5066354;28;20049;-64
2021/03/07 16:49:08;;;;;;;1.25;1.08;;;;;;;;;;5074733;28;20044;-64
2021/03/07 16:51:34;;;;;;;2.17;1.10;;;;;;;;;;5044598;28;20048;-67
2021/03/07 16:54:03;;;;;;;1.02;0.93;;;;;;;;;;5077383;28;20525;-65
2021/03/07 16:56:28;;;;;;;1.65;1.20;;;;;;;;;;5074195;28;20629;-67
2021/03/07 16:58:54;;;;;;;1.77;1.10;;;;;;;;;;5076547;28;20049;-67
2021/03/07 17:01:19;;;;;;;1.50;1.02;;;;;;;;;;5076072;28;20045;-67
2021/03/07 17:03:45;;;;;;;2.13;1.15;;;;;;;;;;5065659;28;20092;-67
2021/03/07 17:06:10;;;;;;;1.83;1.10;;;;;;;;;;5071898;28;20578;-67
2021/03/07 17:08:36;;;;;;;2.15;1.20;;;;;;;;;;5082375;28;20044;-68
2021/03/07 17:11:01;;;;;;;1.42;1.05;;;;;;;;;;5075660;28;20094;-67
2021/03/07 17:13:27;;;;;;;1.08;0.90;;;;;;;;;;5082718;28;20505;-63
2021/03/07 17:15:55;;;;;;;2.55;1.15;;;;;;;;;;5073532;28;20049;-63
2021/03/07 17:18:20;;;;;;;1.55;1.00;;;;;;;;;;5076537;28;20088;-62
2021/03/07 17:20:46;;;;;;;1.10;1.00;;;;;;;;;;5072378;28;20040;-65
2021/03/07 17:23:11;;;;;;;1.60;1.10;;;;;;;;;;5074227;28;20530;-64
2021/03/07 17:25:37;;;;;;;2.45;1.10;;;;;;;;;;5075857;28;20052;-65
2021/03/07 17:28:04;;;;;;;1.63;1.20;;;;;;;;;;5074702;28;20445;-64
2021/03/07 17:30:29;;;;;;;2.35;1.02;;;;;;;;;;5072076;28;20048;-61
2021/03/07 17:32:55;;;;;;;2.03;1.38;;;;;;;;;;5076336;28;20064;-62
2021/03/07 17:35:20;;;;;;;2.22;1.30;;;;;;;;;;5075189;28;20083;-60
2021/03/07 17:37:46;;;;;;;2.17;1.25;;;;;;;;;;5074414;28;20037;-61
2021/03/07 17:40:11;;;;;;;2.60;1.50;;;;;;;;;;5074514;28;20051;-62
2021/03/07 17:42:37;;;;;;;2.25;1.50;;;;;;;;;;5054406;28;20593;-60
2021/03/07 17:45:03;;;;;;;2.03;1.13;;;;;;;;;;5073635;28;20045;-60
2021/03/07 17:47:28;;;;;;;1.55;1.20;;;;;;;;;;5072415;28;20045;-60
2021/03/07 17:49:54;;;;;;;2.30;1.40;;;;;;;;;;5074374;28;20041;-66
2021/03/07 17:52:20;;;;;;;1.73;1.20;;;;;;;;;;5073414;28;20045;-67
2021/03/07 17:54:45;;;;;;;1.98;1.23;;;;;;;;;;5075881;28;20117;-66
2021/03/07 17:57:11;;;;;;;2.70;1.40;;;;;;;;;;5070906;28;20041;-65
2021/03/07 17:59:37;;;;;;;1.48;1.20;;;;;;;;;;5075994;28;20051;-66
2021/03/07 18:02:04;;;;;;;1.52;1.08;;;;;;;;;;5076314;28;20044;-66
2021/03/07 18:04:29;;;;;;;3.17;1.38;;;;;;;;;;5040113;28;20041;-66
2021/03/07 18:06:55;;;;;;;1.40;1.23;;;;;;;;;;5071274;28;20040;-67
2021/03/07 18:09:21;;;;;;;1.58;1.10;;;;;;;;;;5076376;28;20070;-67
2021/03/07 18:11:46;;;;;;;1.70;1.30;;;;;;;;;;5075235;28;20080;-67
2021/03/07 18:14:11;;;;;;;1.38;0.90;;;;;;;;;;5078212;28;20499;-66
2021/03/07 18:16:37;;;;;;;1.85;1.35;;;;;;;;;;5079908;28;20049;-65
2021/03/07 18:19:03;;;;;;;2.00;1.20;;;;;;;;;;5076374;28;20045;-65
2021/03/07 18:21:28;;;;;;;1.92;1.35;;;;;;;;;;5077763;28;20055;-67
2021/03/07 18:23:54;;;;;;;2.78;1.50;;;;;;;;;;5077779;28;20040;-67
2021/03/07 18:26:23;;;;;;;2.28;1.50;;;;;;;;;;5075051;28;20098;-68
2021/03/07 18:28:48;;;;;;;2.03;1.30;;;;;;;;;;5075067;28;20501;-67
2021/03/07 18:31:14;;;;;;;2.50;1.13;;;;;;;;;;5077468;28;20040;-68
2021/03/07 18:33:39;;;;;;;2.08;1.35;;;;;;;;;;5077947;28;20051;-67
2021/03/07 18:36:05;;;;;;;2.10;1.50;;;;;;;;;;5077660;28;20361;-67
2021/03/07 18:38:31;;;;;;;4.63;1.50;;;;;;;;;;5079221;28;20045;-67
2021/03/07 18:40:57;;;;;;;2.63;1.45;;;;;;;;;;5078517;28;20387;-67
2021/03/07 18:43:22;;;;;;;2.15;1.50;;;;;;;;;;5078392;28;20486;-67
2021/03/07 18:45:51;;;;;;;2.28;1.48;;;;;;;;;;5077314;28;20037;-68
2021/03/07 18:48:17;;;;;;;1.52;1.30;;;;;;;;;;5075995;28;20049;-67
2021/03/07 18:50:43;;;;;;;2.13;1.40;;;;;;;;;;5078380;28;20049;-67
2021/03/07 18:53:09;;;;;;;2.35;1.52;;;;;;;;;;5076520;28;20099;-66
2021/03/07 18:55:37;;;;;;;2.40;1.60;;;;;;;;;;5059634;28;20048;-67
2021/03/07 18:58:03;;;;;;;2.50;1.40;;;;;;;;;;5058263;28;20048;-64
2021/03/07 19:00:30;;;;;;;4.07;1.95;;;;;;;;;;5075240;28;20182;-64
2021/03/07 19:02:57;;;;;;;2.35;1.55;;;;;;;;;;5077229;28;20097;-65
2021/03/07 19:05:33;;;;;;;2.47;1.40;;;;;;;;;;5077289;28;20040;-65
2021/03/07 19:08:00;;;;;;;2.90;1.70;;;;;;;;;;5076589;28;20045;-64
2021/03/07 19:10:38;;;;;;;3.25;1.60;;;;;;;;;;5077572;28;20139;-64
2021/03/07 19:13:04;;;;;;;1.83;1.50;;;;;;;;;;5074551;28;20122;-64
2021/03/07 19:15:31;;;;;;;2.72;1.40;;;;;;;;;;5076624;28;20626;-64
2021/03/07 19:17:56;;;;;;;2.40;1.40;;;;;;;;;;5073373;28;20485;-64
2021/03/07 19:20:22;;;;;;;3.03;1.83;;;;;;;;;;5076775;28;20164;-64
2021/03/07 19:22:48;;;;;;;2.47;1.65;;;;;;;;;;5077753;28;20045;-64
2021/03/07 19:25:14;;;;;;;2.95;1.70;;;;;;;;;;5059720;28;20559;-63
2021/03/07 19:27:40;;;;;;;3.58;1.98;;;;;;;;;;5059075;28;20049;-64
2021/03/07 19:30:07;;;;;;;2.75;1.70;;;;;;;;;;5059988;28;20037;-64
2021/03/07 19:32:33;;;;;;;2.45;1.80;;;;;;;;;;5061490;28;20080;-64
2021/03/07 19:34:59;;;;;;;2.95;1.63;;;;;;;;;;5059499;28;20040;-64
2021/03/07 19:37:24;;;;;;;4.80;2.85;;;;;;;;;;5075532;28;20044;-64
2021/03/07 19:40:02;;;;;;;6.32;3.30;;;;;;;;;;5076478;28;20040;-64
2021/03/07 19:42:30;;;;;;;5.00;3.13;;;;;;;;;;5074541;28;20099;-63
2021/03/07 19:45:27;;;;;;;6.57;4.22;;;;;;;;;;5067567;28;20048;-64
2021/03/07 19:48:25;;;;;;;4.25;2.63;;;;;;;;;;5054224;28;20059;-64
2021/03/07 19:50:51;;;;;;;2.83;2.15;;;;;;;;;;5083689;28;20051;-64
2021/03/07 19:53:18;;;;;;;3.38;2.17;;;;;;;;;;5057629;28;20101;-63
2021/03/07 19:55:45;;;;;;;3.38;2.17;;;;;;;;;;5067326;28;20069;-63
2021/03/07 19:58:11;;;;;;;3.30;2.20;;;;;;;;;;5074597;28;20111;-64
2021/03/07 20:00:40;;;;;;;3.45;2.22;;;;;;;;;;5051016;28;20049;-64
2021/03/07 20:03:29;;;;;;;3.80;2.38;;;;;;;;;;5064843;28;20056;-64
2021/03/07 20:06:30;;;;;;;4.88;2.63;;;;;;;;;;5064374;28;20121;-64
2021/03/07 20:08:55;;;;;;;4.60;2.78;;;;;;;;;;5075363;28;20103;-64
2021/03/07 20:11:21;;;;;;;4.05;2.70;;;;;;;;;;5074335;28;20071;-63
2021/03/07 20:13:53;;;;;;;4.18;2.78;;;;;;;;;;5075819;28;20882;-64
2021/03/07 20:16:19;;;;;;;5.18;2.80;;;;;;;;;;5076539;28;20068;-64
2021/03/07 20:18:45;;;;;;;5.38;2.90;;;;;;;;;;5077543;28;20556;-64
2021/03/07 20:21:10;;;;;;;4.47;2.78;;;;;;;;;;5072959;28;20052;-63
2021/03/07 20:23:37;;;;;;;5.68;2.65;;;;;;;;;;5074527;28;20040;-64
2021/03/07 20:26:02;;;;;;;3.97;2.53;;;;;;;;;;5072919;28;20302;-64
2021/03/07 20:28:29;;;;;;;4.55;2.80;;;;;;;;;;5073570;28;20053;-64
2021/03/07 20:30:55;;;;;;;4.95;2.65;;;;;;;;;;5057035;28;20399;-64
2021/03/07 20:33:20;;;;;;;5.13;3.05;;;;;;;;;;5057642;28;20043;-64
2021/03/07 20:35:46;;;;;;;6.25;3.20;;;;;;;;;;5074309;28;20053;-64
2021/03/07 20:38:17;;;;;;;5.90;3.08;;;;;;;;;;5066703;28;20131;-64
2021/03/07 20:40:46;;;;;;;5.85;3.13;;;;;;;;;;5075069;28;20044;-64
2021/03/07 20:43:12;;;;;;;5.88;3.13;;;;;;;;;;5071238;28;20546;-65
2021/03/07 20:45:38;;;;;;;5.28;3.20;;;;;;;;;;5077201;28;20044;-64
2021/03/07 20:48:12;;;;;;;5.13;3.25;;;;;;;;;;5058373;28;20040;-64
2021/03/07 20:50:43;;;;;;;5.05;3.03;;;;;;;;;;5073438;28;20186;-64
2021/03/07 20:53:17;;;;;;;3.70;2.75;;;;;;;;;;5074428;28;20124;-64
2021/03/07 20:55:45;;;;;;;4.72;2.90;;;;;;;;;;5075487;28;20068;-64
2021/03/07 20:58:11;;;;;;;4.68;3.13;;;;;;;;;;5072990;28;20176;-64
2021/03/07 21:00:36;;;;;;;5.90;3.30;;;;;;;;;;5066110;28;20052;-65
2021/03/07 21:03:03;;;;;;;4.85;2.78;;;;;;;;;;5073017;28;20494;-64
2021/03/07 21:05:29;;;;;;;5.07;3.10;;;;;;;;;;5066680;28;20048;-64
2021/03/07 21:07:55;;;;;;;5.13;3.40;;;;;;;;;;5075437;28;20049;-64
2021/03/07 21:10:20;;;;;;;5.20;3.58;;;;;;;;;;5040938;28;20048;-63
2021/03/07 21:12:47;;;;;;;5.47;3.90;;;;;;;;;;5066186;28;20278;-65
2021/03/07 21:15:13;;;;;;;5.18;3.42;;;;;;;;;;5073803;28;20053;-64
2021/03/07 21:17:38;;;;;;;4.40;3.42;;;;;;;;;;5077139;28;20036;-64
2021/03/07 21:20:06;;;;;;;5.82;3.70;;;;;;;;;;5064658;28;20051;-64
2021/03/07 21:22:31;;;;;;;6.88;3.97;;;;;;;;;;5074990;28;20037;-64
2021/03/07 21:24:57;;;;;;;5.18;3.38;;;;;;;;;;5076690;28;20470;-64
2021/03/07 21:27:23;;;;;;;5.28;3.47;;;;;;;;;;5075261;28;20546;-64
2021/03/07 21:29:49;;;;;;;6.18;4.03;;;;;;;;;;5072261;28;20045;-64
2021/03/07 21:32:14;;;;;;;7.22;4.32;;;;;;;;;;5072143;28;20547;-63
2021/03/07 21:34:40;;;;;;;6.85;4.22;;;;;;;;;;5074168;28;20066;-64
2021/03/07 21:37:05;;;;;;;6.45;3.95;;;;;;;;;;5072140;28;20371;-64
2021/03/07 21:39:31;;;;;;;6.40;4.20;;;;;;;;;;5073301;28;20446;-64
2021/03/07 21:41:57;;;;;;;6.82;4.25;;;;;;;;;;5074733;28;20059;-65
2021/03/07 21:44:22;;;;;;;7.47;4.13;;;;;;;;;;5073655;28;20056;-64
2021/03/07 21:46:48;;;;;;;6.63;4.30;;;;;;;;;;5074423;28;20049;-64
2021/03/07 21:49:13;;;;;;;6.93;4.10;;;;;;;;;;5071243;28;20620;-63
2021/03/07 21:51:39;;;;;;;6.80;3.97;;;;;;;;;;5073385;28;20048;-64
2021/03/07 21:54:05;;;;;;;7.63;4.30;;;;;;;;;;5071289;28;20388;-63
2021/03/07 21:56:30;;;;;;;8.80;4.70;;;;;;;;;;5082329;28;20036;-63
2021/03/07 21:58:56;;;;;;;9.70;5.65;;;;;;;;;;5071707;28;20498;-63
2021/03/07 22:01:21;;;;;;;8.25;5.05;;;;;;;;;;5074061;28;20059;-64
2021/03/07 22:03:47;;;;;;;7.57;4.43;;;;;;;;;;5074719;28;20039;-63
2021/03/07 22:06:13;;;;;;;6.43;4.25;;;;;;;;;;5074087;28;20053;-63
2021/03/07 22:08:38;;;;;;;6.45;4.18;;;;;;;;;;5072346;28;20037;-64
2021/03/07 22:11:04;;;;;;;7.13;4.13;;;;;;;;;;5071031;28;20124;-63
2021/03/07 22:13:45;;;;;;;6.50;4.10;;;;;;;;;;5059571;28;20048;-63
2021/03/07 22:16:10;;;;;;;6.00;4.05;;;;;;;;;;5072775;28;20095;-63
2021/03/07 22:18:36;;;;;;;6.38;4.10;;;;;;;;;;5072977;28;20092;-63
2021/03/07 22:21:02;;;;;;;6.63;4.30;;;;;;;;;;5074745;28;20115;-61
2021/03/07 22:23:27;;;;;;;5.82;3.95;;;;;;;;;;5072054;28;20045;-62
2021/03/07 22:25:53;;;;;;;6.38;4.47;;;;;;;;;;5055433;28;20045;-61
2021/03/07 22:28:18;;;;;;;6.65;4.25;;;;;;;;;;5074306;28;20565;-62
2021/03/07 22:30:44;;;;;;;5.95;4.20;;;;;;;;;;5074921;28;20041;-62
2021/03/07 22:33:09;;;;;;;7.90;4.50;;;;;;;;;;5074979;28;20450;-62
2021/03/07 22:35:35;;;;;;;6.78;4.50;;;;;;;;;;5072805;28;20095;-61
2021/03/07 22:38:00;;;;;;;7.00;4.32;;;;;;;;;;5074442;28;20044;-62
2021/03/07 22:40:26;;;;;;;5.97;4.10;;;;;;;;;;5071878;28;20049;-62
2021/03/07 22:42:51;;;;;;;7.68;5.10;;;;;;;;;;5073065;28;20040;-62
2021/03/07 22:45:17;;;;;;;6.65;4.53;;;;;;;;;;5072167;28;20543;-61
2021/03/07 22:47:43;;;;;;;8.50;5.13;;;;;;;;;;5073762;28;20040;-62
2021/03/07 22:50:09;;;;;;;7.70;4.88;;;;;;;;;;5072978;28;20048;-62
2021/03/07 22:52:34;;;;;;;8.13;5.60;;;;;;;;;;5072598;28;20052;-61
2021/03/07 22:55:00;;;;;;;7.85;5.00;;;;;;;;;;5074058;28;20457;-61
2021/03/07 22:57:25;;;;;;;7.03;4.78;;;;;;;;;;5074955;28;20041;-62
2021/03/07 22:59:51;;;;;;;8.80;5.22;;;;;;;;;;5075983;28;20090;-62
2021/03/07 23:02:16;;;;;;;8.15;5.50;;;;;;;;;;5076418;28;20044;-62
2021/03/07 23:04:42;;;;;;;9.02;5.38;;;;;;;;;;5076827;28;20033;-62
2021/03/07 23:07:07;;;;;;;9.25;6.43;;;;;;;;;;5076135;28;20045;-62
2021/03/07 23:09:33;;;;;;;8.45;6.28;;;;;;;;;;5075732;28;20448;-62
2021/03/07 23:11:58;;;;;;;8.95;6.70;;;;;;;;;;5077158;28;20044;-62
2021/03/07 23:14:24;;;;;;;10.13;6.40;;;;;;;;;;5077117;28;20071;-62
2021/03/07 23:16:50;;;;;;;9.13;6.32;;;;;;;;;;5077569;28;20719;-62
2021/03/07 23:19:15;;;;;;;9.32;6.25;;;;;;;;;;5066823;28;20052;-61
2021/03/07 23:21:41;;;;;;;8.05;5.72;;;;;;;;;;5077882;28;20047;-62
2021/03/07 23:24:07;;;;;;;10.23;6.25;;;;;;;;;;5077179;28;20044;-61
2021/03/07 23:26:32;;;;;;;9.50;6.45;;;;;;;;;;5077461;28;20529;-62
2021/03/07 23:28:58;;;;;;;10.20;6.50;;;;;;;;;;5077169;28;20049;-61
2021/03/07 23:31:23;;;;;;;9.43;6.78;;;;;;;;;;5076826;28;20049;-61
2021/03/07 23:33:49;;;;;;;10.48;7.00;;;;;;;;;;5076626;28;20043;-62
2021/03/07 23:36:15;;;;;;;9.93;7.03;;;;;;;;;;5073766;28;20105;-62
2021/03/07 23:38:40;;;;;;;9.00;6.03;;;;;;;;;;5076755;28;20048;-61
2021/03/07 23:41:06;;;;;;;8.57;6.15;;;;;;;;;;5076265;28;20052;-62
2021/03/07 23:43:31;;;;;;;8.35;5.78;;;;;;;;;;5075414;28;20056;-62
2021/03/07 23:45:57;;;;;;;8.85;6.00;;;;;;;;;;5076486;28;20041;-62
2021/03/07 23:48:22;;;;;;;8.70;5.70;;;;;;;;;;5074400;28;20446;-62